Terminal Aerodrome Forecast
Issued by NWS

Home | Current Version | Previous Version | Text Only | Print | Product List | Glossary On
Versions: 1 2 3 4 5 6 7 8 9 10 11 12 13 14
000
FTUS41 KBTV 261722 CCA
TAFSLK
TAF COR
KSLK 261722Z 2617/2718 22005KT 1SM -SN BR OVC008
      TEMPO 2618/2622 1/2SM SN FG OVC003
     FM270300 VRB03KT 2SM -SHSN BR OVC008
     FM270900 VRB06KT 6SM BR OVC020=

USA.gov is the U.S. government's official web portal to all federal, state and local government web resources and services.